Corinthiakos — A8UL2 — position and weather

sailwx.info

Track history (hours):
 
Tides and Currents Weather Stations Pressure Air Temp Water Temp Dewpoint Dewpoint Depression Visibility Wind Speed Wind Dir Waves Ship Positions

Corinthiakos

Last reported at 2014-Sep-15 08:19 UTC. Time now 2014-Sep-15 09:29 UTC.
Position N 31°16' E 121°52'.

Length 262 m; draft 10.3 m.

Type: Cargo ship. MMSI: 636014516.

Date/timePositionNaut miles runAvg speedWind from/ knotsBaromVisibWave heightAir tempDewpointWater temp
2014-Sep-15 08:19N 31°16' E 121°52'1114.0
2014-Sep-15 07:33N 31°20' E 121°41'6 5.9
2014-Sep-15 06:33N 31°23' E 121°34'0 0.0
2014-Sep-15 05:33N 31°23' E 121°34'0 0.0
2014-Sep-15 04:33N 31°23' E 121°34'0 0.0
2014-Sep-15 03:18N 31°23' E 121°34'0 0.0
2014-Sep-15 02:27N 31°23' E 121°34'0 0.0
2014-Sep-15 01:21N 31°23' E 121°34'0 0.0
2014-Sep-15 00:33N 31°23' E 121°34'0 0.0
2014-Sep-14 23:15N 31°23' E 121°34'0 0.0
2014-Sep-14 22:33N 31°23' E 121°34'0 0.0
2014-Sep-14 20:09N 31°23' E 121°34'0 0.1
2014-Sep-14 19:27N 31°23' E 121°34'0 0.4
2014-Sep-14 18:32N 31°23' E 121°34'6 6.2
2014-Sep-14 17:32N 31°20' E 121°41'10 9.9
2014-Sep-14 16:33N 31°16' E 121°51'2110.4
2014-Sep-14 14:30N 31°08' E 122°14'9 9.3
2014-Sep-14 13:31N 31°06' E 122°25'15 1.7
2014-Sep-14 04:31N 31°09' E 122°42'1211.1
2014-Sep-14 03:26N 30°58' E 122°47'1112.1
2014-Sep-14 02:34N 30°49' E 122°53'1211.5
2014-Sep-14 01:34N 30°39' E 122°59'4210.3
2014-Sep-13 21:30N 29°57' E 122°51'1212.3
2014-Sep-13 20:29N 29°48' E 122°41'1112.1
2014-Sep-13 19:32N 29°41' E 122°31'1312.9
2014-Sep-13 18:33N 29°46' E 122°17'1212.5
2014-Sep-13 17:33N 29°55' E 122°08'1110.6
2014-Sep-13 16:33N 29°57' E 121°55'1 0.2
2014-Sep-13 12:33N 29°56' E 121°56'0 0.0
2014-Sep-13 10:27N 29°56' E 121°56'0 0.0
2014-Sep-13 09:27N 29°56' E 121°56'0 0.0
2014-Sep-13 07:33N 29°56' E 121°56'0 0.0
2014-Sep-13 05:33N 29°56' E 121°56'0 0.0
2014-Sep-13 04:33N 29°56' E 121°56'5 5.2
2014-Sep-13 03:33N 29°56' E 122°02'1212.3
2014-Sep-13 02:33N 29°49' E 122°14'1111.3
2014-Sep-13 01:33N 29°44' E 122°25'1010.4
2014-Sep-13 00:33N 29°37' E 122°35'1212.0
2014-Sep-12 23:33N 29°25' E 122°35'1412.5
2014-Sep-12 22:25N 29°11' E 122°32'29414.1
2014-Sep-12 01:32N 24°57' E 119°44'1614.1
2014-Sep-12 00:26N 24°47' E 119°31'1314.7
2014-Sep-11 23:33N 24°39' E 119°20'1616.3
2014-Sep-11 22:33N 24°29' E 119°06'1615.4
2014-Sep-11 21:33N 24°17' E 118°54'1514.9
2014-Sep-11 20:33N 24°07' E 118°42'1514.6
2014-Sep-11 19:33N 23°58' E 118°30'1313.6
2014-Sep-11 18:33N 23°48' E 118°20'1514.6
2014-Sep-11 17:33N 23°38' E 118°08'1414.5
2014-Sep-11 16:33N 23°29' E 117°56'1616.1
2014-Sep-11 15:33N 23°18' E 117°43'1616.2
2014-Sep-11 14:33N 23°10' E 117°28'4414.8
2014-Sep-11 11:33N 22°47' E 116°46'13812.3
2014-Sep-11 00:20N 22°34' E 114°17'2 2.2
2014-Sep-10 23:32N 22°34' E 114°16'0 0.1
2014-Sep-10 22:32N 22°34' E 114°16'0 0.0
2014-Sep-10 21:26N 22°34' E 114°16'0 0.1
2014-Sep-10 20:32N 22°34' E 114°16'0 0.0
2014-Sep-10 19:26N 22°34' E 114°16'0 0.1
2014-Sep-10 18:32N 22°34' E 114°16'0 0.1
2014-Sep-10 17:32N 22°34' E 114°16'0 0.0
2014-Sep-10 15:33N 22°34' E 114°16'0 0.0
2014-Sep-10 14:31N 22°34' E 114°16'1 0.7
2014-Sep-10 13:33N 22°34' E 114°16'16 1.1
2014-Sep-09 23:08N 22°20' E 114°07'4 6.2
2014-Sep-09 22:28N 22°16' E 114°07'9 9.6
2014-Sep-09 21:32N 22°09' E 114°13'9 8.5
2014-Sep-09 20:28N 22°08' E 114°03'5 5.8
2014-Sep-09 19:32N 22°07' E 113°57'0 0.5
2014-Sep-09 18:31N 22°07' E 113°57'6 6.0
2014-Sep-09 17:33N 22°07' E 113°51'1212.2
2014-Sep-09 16:33N 22°18' E 113°48'1413.8
2014-Sep-09 15:33N 22°32' E 113°44'7 6.8
2014-Sep-09 14:33N 22°38' E 113°41'0 0.0
2014-Sep-09 13:28N 22°38' E 113°41'0 0.0
2014-Sep-09 12:21N 22°38' E 113°41'0 0.0
2014-Sep-09 11:33N 22°38' E 113°41'0 0.0
2014-Sep-09 10:29N 22°38' E 113°41'0 0.0
2014-Sep-09 09:30N 22°38' E 113°41'0 0.0
2014-Sep-09 08:33N 22°38' E 113°41'0 0.0
2014-Sep-09 07:33N 22°38' E 113°41'0 0.0
2014-Sep-09 06:34N 22°38' E 113°41'0 0.0
2014-Sep-09 05:33N 22°38' E 113°41'0 0.0
2014-Sep-09 04:33N 22°38' E 113°41'0 0.0
2014-Sep-09 03:34N 22°38' E 113°41'1 0.9
2014-Sep-09 02:33N 22°38' E 113°42'1413.6
2014-Sep-09 01:33N 22°25' E 113°46'1413.9
2014-Sep-09 00:33N 22°11' E 113°50'19011.1
2014-Sep-08 07:22N 22°59' E 117°09'5318.7
2014-Sep-08 04:31N 23°30' E 117°57'1515.8
2014-Sep-08 03:33N 23°40' E 118°09'1615.4
2014-Sep-08 02:31N 23°50' E 118°22'1614.8
2014-Sep-08 01:28N 24°01' E 118°35'2813.6
2014-Sep-07 23:24N 24°20' E 118°57'1212.5
2014-Sep-07 22:29N 24°28' E 119°07'1212.2
2014-Sep-07 21:31N 24°35' E 119°16'1212.5
2014-Sep-07 20:33N 24°44' E 119°26'7013.2
2014-Sep-07 15:13N 25°31' E 120°23'1014.6
2014-Sep-07 14:33N 25°38' E 120°31'1514.3
2014-Sep-07 13:29N 25°49' E 120°42'3215.0
2014-Sep-07 11:22N 26°13' E 121°06'  
Track history (hours):
 
Tides and Currents Weather Stations Pressure Air Temp Water Temp Dewpoint Dewpoint Depression Visibility Wind Speed Wind Dir Waves Ship Positions

Corinthiakos

Last reported at 2014-Sep-15 08:19 UTC. Time now 2014-Sep-15 09:29 UTC.
Position N 31°16' E 121°52'.

Length 262 m; draft 10.3 m.

Type: Cargo ship. MMSI: 636014516.

Date/timePositionNaut miles runAvg speedWind from/ knotsBaromVisibWave heightAir tempDewpointWater temp
2014-Sep-15 08:19N 31°16' E 121°52'1114.0
2014-Sep-15 07:33N 31°20' E 121°41'6 5.9
2014-Sep-15 06:33N 31°23' E 121°34'0 0.0
2014-Sep-15 05:33N 31°23' E 121°34'0 0.0
2014-Sep-15 04:33N 31°23' E 121°34'0 0.0
2014-Sep-15 03:18N 31°23' E 121°34'0 0.0
2014-Sep-15 02:27N 31°23' E 121°34'0 0.0
2014-Sep-15 01:21N 31°23' E 121°34'0 0.0
2014-Sep-15 00:33N 31°23' E 121°34'0 0.0
2014-Sep-14 23:15N 31°23' E 121°34'0 0.0
2014-Sep-14 22:33N 31°23' E 121°34'0 0.0
2014-Sep-14 20:09N 31°23' E 121°34'0 0.1
2014-Sep-14 19:27N 31°23' E 121°34'0 0.4
2014-Sep-14 18:32N 31°23' E 121°34'6 6.2
2014-Sep-14 17:32N 31°20' E 121°41'10 9.9
2014-Sep-14 16:33N 31°16' E 121°51'2110.4
2014-Sep-14 14:30N 31°08' E 122°14'9 9.3
2014-Sep-14 13:31N 31°06' E 122°25'15 1.7
2014-Sep-14 04:31N 31°09' E 122°42'1211.1
2014-Sep-14 03:26N 30°58' E 122°47'1112.1
2014-Sep-14 02:34N 30°49' E 122°53'1211.5
2014-Sep-14 01:34N 30°39' E 122°59'4210.3
2014-Sep-13 21:30N 29°57' E 122°51'1212.3
2014-Sep-13 20:29N 29°48' E 122°41'1112.1
2014-Sep-13 19:32N 29°41' E 122°31'1312.9
2014-Sep-13 18:33N 29°46' E 122°17'1212.5
2014-Sep-13 17:33N 29°55' E 122°08'1110.6
2014-Sep-13 16:33N 29°57' E 121°55'1 0.2
2014-Sep-13 12:33N 29°56' E 121°56'0 0.0
2014-Sep-13 10:27N 29°56' E 121°56'0 0.0
2014-Sep-13 09:27N 29°56' E 121°56'0 0.0
2014-Sep-13 07:33N 29°56' E 121°56'0 0.0
2014-Sep-13 05:33N 29°56' E 121°56'0 0.0
2014-Sep-13 04:33N 29°56' E 121°56'5 5.2
2014-Sep-13 03:33N 29°56' E 122°02'1212.3
2014-Sep-13 02:33N 29°49' E 122°14'1111.3
2014-Sep-13 01:33N 29°44' E 122°25'1010.4
2014-Sep-13 00:33N 29°37' E 122°35'1212.0
2014-Sep-12 23:33N 29°25' E 122°35'1412.5
2014-Sep-12 22:25N 29°11' E 122°32'29414.1
2014-Sep-12 01:32N 24°57' E 119°44'1614.1
2014-Sep-12 00:26N 24°47' E 119°31'1314.7
2014-Sep-11 23:33N 24°39' E 119°20'1616.3
2014-Sep-11 22:33N 24°29' E 119°06'1615.4
2014-Sep-11 21:33N 24°17' E 118°54'1514.9
2014-Sep-11 20:33N 24°07' E 118°42'1514.6
2014-Sep-11 19:33N 23°58' E 118°30'1313.6
2014-Sep-11 18:33N 23°48' E 118°20'1514.6
2014-Sep-11 17:33N 23°38' E 118°08'1414.5
2014-Sep-11 16:33N 23°29' E 117°56'1616.1
2014-Sep-11 15:33N 23°18' E 117°43'1616.2
2014-Sep-11 14:33N 23°10' E 117°28'4414.8
2014-Sep-11 11:33N 22°47' E 116°46'13812.3
2014-Sep-11 00:20N 22°34' E 114°17'2 2.2
2014-Sep-10 23:32N 22°34' E 114°16'0 0.1
2014-Sep-10 22:32N 22°34' E 114°16'0 0.0
2014-Sep-10 21:26N 22°34' E 114°16'0 0.1
2014-Sep-10 20:32N 22°34' E 114°16'0 0.0
2014-Sep-10 19:26N 22°34' E 114°16'0 0.1
2014-Sep-10 18:32N 22°34' E 114°16'0 0.1
2014-Sep-10 17:32N 22°34' E 114°16'0 0.0
2014-Sep-10 15:33N 22°34' E 114°16'0 0.0
2014-Sep-10 14:31N 22°34' E 114°16'1 0.7
2014-Sep-10 13:33N 22°34' E 114°16'16 1.1
2014-Sep-09 23:08N 22°20' E 114°07'4 6.2
2014-Sep-09 22:28N 22°16' E 114°07'9 9.6
2014-Sep-09 21:32N 22°09' E 114°13'9 8.5
2014-Sep-09 20:28N 22°08' E 114°03'5 5.8
2014-Sep-09 19:32N 22°07' E 113°57'0 0.5
2014-Sep-09 18:31N 22°07' E 113°57'6 6.0
2014-Sep-09 17:33N 22°07' E 113°51'1212.2
2014-Sep-09 16:33N 22°18' E 113°48'1413.8
2014-Sep-09 15:33N 22°32' E 113°44'7 6.8
2014-Sep-09 14:33N 22°38' E 113°41'0 0.0
2014-Sep-09 13:28N 22°38' E 113°41'0 0.0
2014-Sep-09 12:21N 22°38' E 113°41'0 0.0
2014-Sep-09 11:33N 22°38' E 113°41'0 0.0
2014-Sep-09 10:29N 22°38' E 113°41'0 0.0
2014-Sep-09 09:30N 22°38' E 113°41'0 0.0
2014-Sep-09 08:33N 22°38' E 113°41'0 0.0
2014-Sep-09 07:33N 22°38' E 113°41'0 0.0
2014-Sep-09 06:34N 22°38' E 113°41'0 0.0
2014-Sep-09 05:33N 22°38' E 113°41'0 0.0
2014-Sep-09 04:33N 22°38' E 113°41'0 0.0
2014-Sep-09 03:34N 22°38' E 113°41'1 0.9
2014-Sep-09 02:33N 22°38' E 113°42'1413.6
2014-Sep-09 01:33N 22°25' E 113°46'1413.9
2014-Sep-09 00:33N 22°11' E 113°50'19011.1
2014-Sep-08 07:22N 22°59' E 117°09'5318.7
2014-Sep-08 04:31N 23°30' E 117°57'1515.8
2014-Sep-08 03:33N 23°40' E 118°09'1615.4
2014-Sep-08 02:31N 23°50' E 118°22'1614.8
2014-Sep-08 01:28N 24°01' E 118°35'2813.6
2014-Sep-07 23:24N 24°20' E 118°57'1212.5
2014-Sep-07 22:29N 24°28' E 119°07'1212.2
2014-Sep-07 21:31N 24°35' E 119°16'1212.5
2014-Sep-07 20:33N 24°44' E 119°26'7013.2
2014-Sep-07 15:13N 25°31' E 120°23'1014.6
2014-Sep-07 14:33N 25°38' E 120°31'1514.3
2014-Sep-07 13:29N 25°49' E 120°42'3215.0
2014-Sep-07 11:22N 26°13' E 121°06'  

Dump ship's entire track history